createdAt,value
2016-12-11T00:00:02.964Z,6.99
2016-12-11T00:05:02.320Z,6.99
2016-12-11T00:10:02.658Z,7.01
2016-12-11T00:15:03.002Z,7
2016-12-11T00:20:02.447Z,7
2016-12-11T00:25:02.822Z,7.02
2016-12-11T00:30:02.169Z,7.01
2016-12-11T00:35:02.500Z,7.02
2016-12-11T00:40:02.858Z,7.04
2016-12-11T00:45:02.218Z,7.04
2016-12-11T00:50:02.580Z,7.09
2016-12-11T00:55:02.941Z,7.09
2016-12-11T01:00:02.302Z,7.11
2016-12-11T01:05:02.637Z,7.11
2016-12-11T01:10:02.996Z,7.12
2016-12-11T01:15:02.355Z,7.12
2016-12-11T01:20:02.816Z,7.13
2016-12-11T01:25:02.195Z,7.15
2016-12-11T01:30:02.565Z,7.14
2016-12-11T01:35:02.907Z,7.14
2016-12-11T01:40:02.285Z,7.15
2016-12-11T01:45:02.654Z,7.14
2016-12-11T01:50:02.998Z,7.15
2016-12-11T01:55:02.323Z,7.15
2016-12-11T02:00:02.675Z,7.15
2016-12-11T02:05:03.037Z,7.16
2016-12-11T02:10:02.397Z,7.17
2016-12-11T02:15:02.704Z,7.18
2016-12-11T02:20:03.162Z,7.19
2016-12-11T02:25:02.473Z,7.24
2016-12-11T02:30:02.830Z,7.28
2016-12-11T02:35:02.206Z,7.35
2016-12-11T02:40:02.553Z,7.41
2016-12-11T02:45:02.891Z,7.44
2016-12-11T02:50:02.272Z,7.48
2016-12-11T02:55:02.626Z,7.49
2016-12-11T03:00:03.004Z,7.54
2016-12-11T03:05:02.364Z,7.57
2016-12-11T03:10:02.736Z,7.58
2016-12-11T03:15:03.080Z,7.6
2016-12-11T03:20:02.497Z,7.61
2016-12-11T03:25:02.835Z,7.63
2016-12-11T03:30:02.137Z,7.63
2016-12-11T03:35:02.476Z,7.68
2016-12-11T03:40:02.846Z,7.74
2016-12-11T03:45:02.207Z,7.82
2016-12-11T03:50:02.624Z,7.97
2016-12-11T03:55:02.952Z,8.14
2016-12-11T04:00:02.285Z,8.24
2016-12-11T04:05:02.702Z,8.3
2016-12-11T04:10:03.010Z,8.33
2016-12-11T04:15:02.359Z,8.36
2016-12-11T04:20:02.809Z,8.38
2016-12-11T04:25:02.165Z,8.38
2016-12-11T04:30:02.526Z,8.44
2016-12-11T04:35:02.860Z,8.46
2016-12-11T04:40:02.202Z,8.48
2016-12-11T04:45:02.703Z,8.49
2016-12-11T04:50:03.046Z,8.51
2016-12-11T04:55:02.394Z,8.55
2016-12-11T05:00:02.715Z,8.55
2016-12-11T05:05:03.066Z,8.53
2016-12-11T05:10:02.412Z,8.55
2016-12-11T05:15:02.748Z,8.51
2016-12-11T05:20:02.164Z,8.5
2016-12-11T05:25:02.481Z,8.49
2016-12-11T05:30:02.804Z,8.48
2016-12-11T05:35:02.167Z,8.5
2016-12-11T05:40:03.074Z,8.53
2016-12-11T05:45:02.410Z,8.53
2016-12-11T05:50:02.855Z,8.55
2016-12-11T05:55:02.201Z,8.51
2016-12-11T06:00:02.557Z,8.52
2016-12-11T06:05:02.930Z,8.5
2016-12-11T06:10:02.328Z,8.51
2016-12-11T06:15:02.672Z,8.5
2016-12-11T06:20:03.158Z,8.51
2016-12-11T06:25:02.509Z,8.51
2016-12-11T06:30:02.870Z,8.52
2016-12-11T06:35:02.242Z,8.45
2016-12-11T06:40:02.550Z,8.34
2016-12-11T06:45:02.869Z,8.15
2016-12-11T06:50:02.272Z,7.9
2016-12-11T06:55:02.626Z,7.69
2016-12-11T07:00:03.002Z,7.55
2016-12-11T07:05:02.357Z,7.42
2016-12-11T07:10:02.702Z,7.24
2016-12-11T07:15:03.061Z,6.97
2016-12-11T07:20:02.487Z,6.74
2016-12-11T07:25:02.857Z,6.58
2016-12-11T07:30:02.251Z,6.45
2016-12-11T07:35:02.571Z,6.31
2016-12-11T07:40:02.927Z,6.25
2016-12-11T07:45:02.280Z,6.2
2016-12-11T07:50:02.668Z,6.21
2016-12-11T07:55:03.018Z,6.21
2016-12-11T08:00:02.443Z,6.21
2016-12-11T08:05:02.804Z,6.2
2016-12-11T08:10:02.173Z,6.19
2016-12-11T08:15:02.540Z,6.16
2016-12-11T08:20:02.936Z,6.15
2016-12-11T08:25:02.357Z,6.14
2016-12-11T08:30:02.732Z,6.1
2016-12-11T08:35:03.066Z,6.08
2016-12-11T08:40:02.432Z,6.09
2016-12-11T08:45:02.799Z,6.11
2016-12-11T08:50:02.275Z,6.12
2016-12-11T08:55:02.698Z,6.16
2016-12-11T09:00:03.100Z,6.19
2016-12-11T09:05:02.445Z,6.25
2016-12-11T09:10:02.876Z,6.28
2016-12-11T09:15:02.292Z,6.33
2016-12-11T09:20:02.784Z,6.34
2016-12-11T09:25:03.164Z,6.38
2016-12-11T09:30:02.464Z,6.4
2016-12-11T09:35:02.809Z,6.37
2016-12-11T09:40:02.219Z,6.37
2016-12-11T09:45:02.584Z,6.37
2016-12-11T09:50:02.977Z,6.41
2016-12-11T09:55:02.325Z,6.45
2016-12-11T10:00:02.698Z,6.5
2016-12-11T10:05:03.097Z,6.52
2016-12-11T10:10:02.448Z,6.56
2016-12-11T10:15:02.817Z,6.6
2016-12-11T10:20:02.299Z,6.66
2016-12-11T10:25:02.680Z,6.68
2016-12-11T10:30:02.998Z,6.71
2016-12-11T10:35:02.363Z,6.71
2016-12-11T10:40:02.712Z,6.76
2016-12-11T10:45:03.076Z,6.83
2016-12-11T10:50:02.413Z,6.9
2016-12-11T10:55:02.810Z,6.97
2016-12-11T11:00:02.237Z,7.05
2016-12-11T11:05:02.626Z,7.1
2016-12-11T11:10:02.988Z,7.14
2016-12-11T11:15:02.366Z,7.16
2016-12-11T11:20:02.838Z,7.19
2016-12-11T11:25:02.185Z,7.29
2016-12-11T11:30:02.541Z,7.35
2016-12-11T11:35:03.000Z,7.47
2016-12-11T11:40:02.360Z,7.56
2016-12-11T11:45:02.741Z,7.6
2016-12-11T11:50:03.071Z,7.59
2016-12-11T11:55:02.407Z,7.58
2016-12-11T12:00:02.756Z,7.58
2016-12-11T12:05:03.071Z,7.55
2016-12-11T12:10:02.467Z,7.55
2016-12-11T12:15:02.828Z,7.53
2016-12-11T12:20:02.295Z,7.54
2016-12-11T12:25:02.623Z,7.55
2016-12-11T12:30:02.985Z,7.57
2016-12-11T12:35:02.354Z,7.57
2016-12-11T12:40:02.749Z,7.59
2016-12-11T12:45:03.101Z,7.65
2016-12-11T12:50:02.426Z,7.68
2016-12-11T12:55:02.803Z,7.74
2016-12-11T13:00:02.116Z,7.75
2016-12-11T13:05:02.464Z,7.74
2016-12-11T13:10:02.834Z,7.73
2016-12-11T13:15:02.180Z,7.74
2016-12-11T13:20:02.601Z,7.76
2016-12-11T13:25:02.992Z,7.75
2016-12-11T13:30:02.373Z,7.73
2016-12-11T13:35:02.840Z,7.81
2016-12-11T13:40:02.238Z,7.85
2016-12-11T13:45:02.602Z,7.9
2016-12-11T13:50:02.970Z,7.96
2016-12-11T13:55:02.313Z,7.94
2016-12-11T14:00:02.700Z,7.94
2016-12-11T14:05:03.158Z,7.92
2016-12-11T14:10:02.623Z,7.86
2016-12-11T14:15:03.029Z,7.72
2016-12-11T14:20:02.545Z,7.57
2016-12-11T14:25:03.038Z,7.39
2016-12-11T14:29:52.504Z,7.29
2016-12-11T14:30:02.435Z,7.28
2016-12-11T14:35:02.795Z,7.2
2016-12-11T14:40:03.122Z,7.11
2016-12-11T14:45:02.466Z,7.1
2016-12-11T14:50:02.850Z,7.07
2016-12-11T14:55:02.202Z,7.04
2016-12-11T15:00:02.600Z,7.01
2016-12-11T15:05:02.966Z,6.97
2016-12-11T15:10:02.376Z,6.9
2016-12-11T15:15:02.735Z,6.84
2016-12-11T15:20:02.195Z,6.84
2016-12-11T15:25:02.542Z,6.81
2016-12-11T15:30:02.895Z,6.8
2016-12-11T15:35:02.277Z,6.78
2016-12-11T15:40:02.701Z,6.76
2016-12-11T15:45:03.116Z,6.81
2016-12-11T15:50:02.494Z,6.84
2016-12-11T15:55:02.882Z,6.85
2016-12-11T16:00:02.449Z,6.87
2016-12-11T16:05:03.004Z,6.88
2016-12-11T16:10:02.574Z,6.89
2016-12-11T16:15:03.047Z,6.89
2016-12-11T16:20:02.499Z,6.89
2016-12-11T16:25:02.902Z,6.85
2016-12-11T16:30:02.225Z,6.83
2016-12-11T16:35:02.572Z,6.82
2016-12-11T16:40:02.980Z,6.84
2016-12-11T16:45:02.309Z,6.85
2016-12-11T16:50:02.672Z,6.88
2016-12-11T16:55:03.108Z,6.89
2016-12-11T17:00:02.449Z,6.94
2016-12-11T17:05:02.817Z,6.93
2016-12-11T17:10:02.290Z,6.93
2016-12-11T17:15:02.589Z,6.95
2016-12-11T17:20:02.989Z,6.94
2016-12-11T17:25:02.355Z,6.95
2016-12-11T17:30:02.705Z,6.96
2016-12-11T17:35:03.222Z,6.96
2016-12-11T17:40:02.643Z,6.96
2016-12-11T17:45:03.017Z,6.97
2016-12-11T17:50:02.375Z,6.96
2016-12-11T17:55:02.784Z,6.95
2016-12-11T18:00:04.289Z,6.97
2016-12-11T18:05:02.620Z,6.98
2016-12-11T18:10:03.289Z,6.97
2016-12-11T18:15:02.609Z,6.97
2016-12-11T18:20:03.060Z,7
2016-12-11T18:25:02.429Z,7
2016-12-11T18:30:02.752Z,7.02
2016-12-11T18:35:03.190Z,7.04
2016-12-11T18:40:02.515Z,7.05
2016-12-11T18:45:02.879Z,7.05
2016-12-11T18:50:02.225Z,7.02
2016-12-11T18:55:02.527Z,7.01
2016-12-11T19:00:02.922Z,7.01
2016-12-11T19:05:02.268Z,7.01
2016-12-11T19:10:02.607Z,7.02
2016-12-11T19:15:03.056Z,7
2016-12-11T19:20:02.559Z,7.02
2016-12-11T19:25:03.095Z,7.04
2016-12-11T19:30:02.597Z,7.03
2016-12-11T19:35:02.952Z,7.03
2016-12-11T19:40:02.347Z,7.05
2016-12-11T19:45:02.712Z,7.08
2016-12-11T19:50:03.060Z,7.09
2016-12-11T19:55:02.422Z,7.09
2016-12-11T20:00:02.807Z,7.11
2016-12-11T20:05:03.156Z,7.1
2016-12-11T20:10:02.514Z,7.1
2016-12-11T20:15:02.890Z,7.12
2016-12-11T20:20:02.355Z,7.14
2016-12-11T20:25:02.709Z,7.15
2016-12-11T20:30:03.065Z,7.18
2016-12-11T20:35:02.459Z,7.16
2016-12-11T20:40:02.805Z,7.14
2016-12-11T20:45:02.227Z,7.13
2016-12-11T20:50:02.632Z,7.09
2016-12-11T20:55:03.011Z,7.07
2016-12-11T21:00:02.408Z,7.03
2016-12-11T21:05:02.781Z,7
2016-12-11T21:10:03.151Z,6.98
2016-12-11T21:15:02.521Z,6.94
2016-12-11T21:20:03.010Z,6.91
2016-12-11T21:25:02.334Z,6.87
2016-12-11T21:30:02.701Z,6.83
2016-12-11T21:35:03.091Z,6.83
2016-12-11T21:40:02.400Z,6.81
2016-12-11T21:45:02.746Z,6.8
2016-12-11T21:50:03.104Z,6.79
2016-12-11T21:55:02.467Z,6.79
2016-12-11T22:00:02.795Z,6.84
2016-12-11T22:05:02.163Z,6.81
2016-12-11T22:10:02.512Z,6.78
2016-12-11T22:15:02.818Z,6.75
2016-12-11T22:20:02.252Z,6.7
2016-12-11T22:25:02.648Z,6.68
2016-12-11T22:30:03.017Z,6.64
2016-12-11T22:35:02.354Z,6.61
2016-12-11T22:40:02.714Z,6.61
2016-12-11T22:45:03.083Z,6.6
2016-12-11T22:50:02.409Z,6.6
2016-12-11T22:55:02.742Z,6.59
2016-12-11T23:00:03.145Z,6.59
2016-12-11T23:05:02.454Z,6.6
2016-12-11T23:10:02.792Z,6.65
2016-12-11T23:15:03.130Z,6.64
2016-12-11T23:20:02.600Z,6.65
2016-12-11T23:25:02.905Z,6.69
2016-12-11T23:30:02.260Z,6.69
2016-12-11T23:35:02.620Z,6.7
2016-12-11T23:40:02.953Z,6.69
2016-12-11T23:45:02.287Z,6.7
2016-12-11T23:50:02.610Z,6.71
2016-12-11T23:55:02.943Z,6.71
